createdAt,value
2023-04-02T00:00:28.287Z,7.79
2023-04-02T00:01:40.610Z,7.83
2023-04-02T00:03:00.623Z,7.85
2023-04-02T00:04:09.265Z,7.90
2023-04-02T00:05:19.812Z,7.82
2023-04-02T00:06:34.600Z,7.83
2023-04-02T00:07:50.986Z,7.88
2023-04-02T00:09:06.110Z,7.91
2023-04-02T00:10:26.578Z,8.01
2023-04-02T00:11:37.677Z,7.91
2023-04-02T00:12:40.843Z,7.88
2023-04-02T00:13:47.267Z,7.93
2023-04-02T00:14:54.014Z,7.95
2023-04-02T00:15:58.918Z,7.96
2023-04-02T00:17:05.573Z,7.95
2023-04-02T00:18:14.649Z,8.05
2023-04-02T00:19:24.955Z,7.98
2023-04-02T00:20:30.902Z,7.98
2023-04-02T00:21:39.933Z,7.97
2023-04-02T00:22:45.113Z,7.96
2023-04-02T00:23:48.092Z,8.00
2023-04-02T00:24:53.735Z,7.98
2023-04-02T00:25:56.708Z,7.92
2023-04-02T00:27:00.997Z,7.88
2023-04-02T00:28:04.611Z,7.90
2023-04-02T00:29:11.523Z,7.86
2023-04-02T00:30:15.906Z,7.84
2023-04-02T00:31:20.397Z,7.84
2023-04-02T00:32:28.067Z,7.82
2023-04-02T00:33:32.361Z,7.92
2023-04-02T00:34:38.326Z,7.87
2023-04-02T00:35:42.008Z,8.09
2023-04-02T00:36:46.891Z,7.88
2023-04-02T00:37:50.758Z,7.75
2023-04-02T00:38:55.285Z,7.73
2023-04-02T00:40:06.472Z,7.75
2023-04-02T00:41:16.683Z,7.66
2023-04-02T00:42:21.048Z,7.59
2023-04-02T00:43:28.180Z,7.55
2023-04-02T00:44:34.659Z,7.46
2023-04-02T00:45:39.138Z,7.35
2023-04-02T00:46:47.520Z,7.28
2023-04-02T00:47:51.204Z,7.25
2023-04-02T00:49:03.404Z,7.30
2023-04-02T00:50:12.441Z,7.19
2023-04-02T00:51:24.880Z,7.26
2023-04-02T00:52:31.722Z,7.15
2023-04-02T00:53:36.184Z,7.27
2023-04-02T00:55:10.717Z,7.18
2023-04-02T00:56:25.843Z,7.11
2023-04-02T00:57:29.095Z,7.07
2023-04-02T00:58:37.757Z,7.04
2023-04-02T00:59:55.448Z,7.01
2023-04-02T01:01:00.352Z,7.05
2023-04-02T01:02:17.584Z,7.03
2023-04-02T01:03:23.135Z,7.03
2023-04-02T01:04:34.694Z,7.05
2023-04-02T01:05:37.995Z,7.05
2023-04-02T01:06:44.338Z,7.00
2023-04-02T01:08:07.636Z,7.05
2023-04-02T01:09:35.600Z,7.09
2023-04-02T01:10:41.751Z,7.12
2023-04-02T01:11:53.581Z,7.08
2023-04-02T01:13:15.183Z,7.08
2023-04-02T01:14:37.102Z,7.05
2023-04-02T01:15:47.256Z,7.03
2023-04-02T01:16:55.315Z,7.08
2023-04-02T01:18:26.953Z,7.10
2023-04-02T01:19:45.380Z,7.13
2023-04-02T01:20:48.385Z,7.07
2023-04-02T01:22:10.226Z,7.10
2023-04-02T01:23:35.940Z,7.09
2023-04-02T01:24:39.065Z,7.07
2023-04-02T01:25:58.961Z,7.06
2023-04-02T01:27:05.743Z,7.10
2023-04-02T01:28:29.941Z,7.13
2023-04-02T01:29:45.668Z,7.08
2023-04-02T01:30:53.502Z,7.19
2023-04-02T01:32:01.881Z,7.15
2023-04-02T01:33:06.535Z,7.20
2023-04-02T01:34:14.656Z,7.25
2023-04-02T01:35:17.858Z,7.19
2023-04-02T01:36:54.788Z,7.21
2023-04-02T01:38:19.586Z,7.21
2023-04-02T01:40:06.215Z,7.18
2023-04-02T01:41:28.268Z,7.32
2023-04-02T01:42:37.170Z,7.33
2023-04-02T01:43:48.453Z,7.27
2023-04-02T01:44:54.543Z,7.23
2023-04-02T01:45:59.113Z,7.19
2023-04-02T01:47:06.032Z,7.23
2023-04-02T01:48:17.018Z,7.20
2023-04-02T01:49:22.946Z,7.20
2023-04-02T01:50:37.493Z,7.23
2023-04-02T01:51:45.077Z,7.25
2023-04-02T01:52:51.454Z,7.24
2023-04-02T01:53:55.120Z,7.31
2023-04-02T01:54:58.330Z,7.28
2023-04-02T01:56:03.057Z,7.26
2023-04-02T01:57:07.772Z,7.26
2023-04-02T01:58:14.145Z,7.24
2023-04-02T01:59:22.591Z,7.28
2023-04-02T02:00:28.094Z,7.34
2023-04-02T02:01:42.797Z,7.41
2023-04-02T02:02:50.334Z,7.40
2023-04-02T02:03:54.157Z,7.35
2023-04-02T02:04:57.099Z,7.35
2023-04-02T02:06:01.799Z,7.40
2023-04-02T02:07:05.594Z,7.39
2023-04-02T02:08:22.654Z,7.37
2023-04-02T02:09:29.552Z,7.43
2023-04-02T02:10:39.354Z,7.50
2023-04-02T02:11:42.693Z,7.69
2023-04-02T02:12:48.287Z,7.68
2023-04-02T02:13:56.773Z,7.59
2023-04-02T02:14:59.678Z,7.55
2023-04-02T02:16:04.910Z,7.66
2023-04-02T02:17:13.706Z,7.80
2023-04-02T02:18:23.905Z,7.83
2023-04-02T02:19:36.008Z,7.75
2023-04-02T02:20:38.933Z,7.70
2023-04-02T02:21:52.664Z,7.83
2023-04-02T02:22:57.643Z,7.77
2023-04-02T02:24:02.658Z,7.83
2023-04-02T02:25:17.538Z,7.87
2023-04-02T02:26:23.372Z,7.84
2023-04-02T02:27:26.497Z,7.78
2023-04-02T02:28:37.980Z,7.76
2023-04-02T02:29:43.261Z,7.81
2023-04-02T02:30:57.839Z,7.83
2023-04-02T02:32:03.193Z,7.78
2023-04-02T02:33:48.060Z,7.89
2023-04-02T02:35:00.859Z,7.84
2023-04-02T02:36:06.643Z,7.79
2023-04-02T02:37:18.381Z,7.77
2023-04-02T02:38:54.675Z,7.82
2023-04-02T02:40:01.200Z,7.84
2023-04-02T02:41:28.002Z,7.83
2023-04-02T02:42:39.754Z,7.83
2023-04-02T02:43:50.935Z,7.82
2023-04-02T02:44:55.745Z,7.79
2023-04-02T02:45:59.735Z,7.74
2023-04-02T02:47:14.660Z,7.78
2023-04-02T02:48:22.662Z,7.72
2023-04-02T02:49:33.233Z,7.67
2023-04-02T02:50:37.276Z,7.62
2023-04-02T02:51:49.405Z,7.61
2023-04-02T02:52:57.753Z,7.61
2023-04-02T02:54:03.968Z,7.61
2023-04-02T02:55:37.915Z,7.67
2023-04-02T02:56:54.401Z,7.62
2023-04-02T02:58:04.928Z,7.56
2023-04-02T02:59:11.546Z,7.57
2023-04-02T03:00:19.471Z,7.63
2023-04-02T03:01:22.906Z,7.64
2023-04-02T03:02:28.837Z,7.61
2023-04-02T03:03:34.589Z,7.65
2023-04-02T03:04:38.938Z,7.63
2023-04-02T03:05:42.206Z,7.56
2023-04-02T03:06:52.948Z,7.61
2023-04-02T03:07:58.769Z,7.53
2023-04-02T03:09:05.345Z,7.53
2023-04-02T03:10:27.728Z,7.48
2023-04-02T03:12:02.357Z,7.51
2023-04-02T03:13:25.086Z,7.47
2023-04-02T03:14:37.404Z,7.47
2023-04-02T03:15:58.718Z,7.49
2023-04-02T03:17:11.198Z,7.47
2023-04-02T03:18:26.419Z,7.44
2023-04-02T03:19:38.912Z,7.45
2023-04-02T03:20:51.912Z,7.44
2023-04-02T03:22:03.780Z,7.46
2023-04-02T03:23:29.902Z,7.52
2023-04-02T03:24:44.437Z,7.56
2023-04-02T03:26:19.903Z,7.55
2023-04-02T03:27:35.541Z,7.60
2023-04-02T03:28:51.192Z,7.52
2023-04-02T03:30:26.945Z,7.53
2023-04-02T03:31:55.397Z,7.45
2023-04-02T03:33:04.144Z,7.43
2023-04-02T03:34:33.229Z,7.40
2023-04-02T03:36:08.526Z,7.44
2023-04-02T03:37:14.966Z,7.41
2023-04-02T03:38:27.451Z,7.38
2023-04-02T03:40:00.134Z,7.33
2023-04-02T03:41:16.655Z,7.35
2023-04-02T03:42:29.191Z,7.39
2023-04-02T03:43:41.649Z,7.43
2023-04-02T03:44:52.865Z,7.51
2023-04-02T03:46:23.570Z,7.47
2023-04-02T03:47:45.449Z,7.47
2023-04-02T03:48:56.490Z,7.47
2023-04-02T03:50:15.761Z,7.45
2023-04-02T03:51:30.970Z,7.38
2023-04-02T03:52:37.081Z,7.31
2023-04-02T03:53:40.128Z,7.31
2023-04-02T03:54:53.791Z,7.36
2023-04-02T03:55:58.823Z,7.38
2023-04-02T03:57:02.248Z,7.39
2023-04-02T03:58:27.488Z,7.33
2023-04-02T03:59:49.035Z,7.27
2023-04-02T04:00:59.069Z,7.32
2023-04-02T04:02:04.777Z,7.33
2023-04-02T04:03:39.821Z,7.33
2023-04-02T04:04:44.973Z,7.33
2023-04-02T04:06:06.404Z,7.33
2023-04-02T04:07:36.505Z,7.27
2023-04-02T04:09:05.644Z,7.22
2023-04-02T04:10:17.314Z,7.21
2023-04-02T04:11:30.135Z,7.20
2023-04-02T04:12:40.476Z,7.15
2023-04-02T04:13:54.738Z,7.10
2023-04-02T04:15:17.238Z,7.13
2023-04-02T04:16:36.374Z,7.14
2023-04-02T04:17:54.238Z,7.12
2023-04-02T04:19:08.586Z,7.05
2023-04-02T04:20:24.627Z,7.06
2023-04-02T04:21:37.738Z,7.01
2023-04-02T04:22:41.154Z,7.08
2023-04-02T04:23:51.308Z,7.05
2023-04-02T04:24:54.430Z,6.97
2023-04-02T04:26:09.828Z,6.94
2023-04-02T04:27:34.857Z,6.93
2023-04-02T04:28:58.578Z,6.97
2023-04-02T04:30:07.488Z,7.07
2023-04-02T04:31:47.458Z,6.97
2023-04-02T04:32:58.838Z,6.86
2023-04-02T04:34:09.492Z,6.92
2023-04-02T04:35:40.418Z,6.90
2023-04-02T04:36:54.767Z,6.88
2023-04-02T04:38:05.045Z,6.86
2023-04-02T04:39:18.879Z,6.80
2023-04-02T04:40:34.350Z,6.91
2023-04-02T04:41:39.519Z,6.90
2023-04-02T04:42:45.544Z,6.82
2023-04-02T04:43:59.908Z,6.80
2023-04-02T04:45:30.941Z,6.73
2023-04-02T04:46:48.489Z,6.82
2023-04-02T04:48:19.551Z,6.75
2023-04-02T04:49:44.621Z,6.77
2023-04-02T04:50:54.073Z,6.82
2023-04-02T04:52:14.116Z,6.91
2023-04-02T04:53:22.080Z,6.99
2023-04-02T04:54:29.064Z,7.00
2023-04-02T04:55:43.413Z,6.99
2023-04-02T04:56:55.632Z,7.17
2023-04-02T04:58:08.662Z,7.21
2023-04-02T04:59:26.760Z,7.21
2023-04-02T05:00:51.438Z,7.25
2023-04-02T05:02:16.788Z,7.25
2023-04-02T05:04:07.521Z,7.30
2023-04-02T05:05:32.218Z,7.41
2023-04-02T05:06:43.062Z,7.46
2023-04-02T05:07:53.391Z,7.54
2023-04-02T05:09:03.492Z,7.54
2023-04-02T05:10:25.116Z,7.63
2023-04-02T05:11:37.721Z,7.66
2023-04-02T05:12:57.462Z,7.68
2023-04-02T05:14:18.291Z,7.80
2023-04-02T05:15:32.480Z,7.78
2023-04-02T05:17:01.853Z,7.80
2023-04-02T05:18:35.928Z,7.87
2023-04-02T05:19:48.970Z,7.85
2023-04-02T05:21:07.302Z,7.85
2023-04-02T05:22:19.895Z,7.86
2023-04-02T05:23:29.689Z,7.96
2023-04-02T05:24:51.619Z,7.96
2023-04-02T05:26:13.453Z,7.95
2023-04-02T05:27:21.755Z,8.04
2023-04-02T05:28:51.022Z,8.08
2023-04-02T05:30:07.521Z,8.06
2023-04-02T05:31:26.471Z,8.07
2023-04-02T05:32:35.574Z,8.10
2023-04-02T05:33:40.148Z,8.16
2023-04-02T05:34:48.664Z,8.19
2023-04-02T05:36:07.875Z,8.21
2023-04-02T05:37:21.785Z,8.27
2023-04-02T05:38:29.417Z,8.34
2023-04-02T05:39:33.097Z,8.36
2023-04-02T05:40:43.254Z,8.39
2023-04-02T05:41:47.830Z,8.44
2023-04-02T05:42:53.433Z,8.51
2023-04-02T05:44:42.010Z,8.56
2023-04-02T05:45:53.296Z,8.67
2023-04-02T05:47:01.791Z,8.68
2023-04-02T05:48:17.022Z,8.85
2023-04-02T05:49:34.856Z,8.81
2023-04-02T05:50:44.040Z,8.83
2023-04-02T05:51:51.131Z,8.83
2023-04-02T05:53:08.787Z,8.90
2023-04-02T05:54:26.403Z,8.96
2023-04-02T05:56:00.265Z,8.95
2023-04-02T05:57:11.773Z,8.91
2023-04-02T05:58:35.610Z,9.02
2023-04-02T05:59:49.551Z,9.01
2023-04-02T06:01:00.061Z,9.04
2023-04-02T06:02:18.155Z,9.08
2023-04-02T06:03:30.188Z,9.14
2023-04-02T06:05:04.544Z,9.15
2023-04-02T06:06:18.819Z,9.23
2023-04-02T06:07:28.658Z,9.25
2023-04-02T06:08:47.994Z,9.30
2023-04-02T06:10:09.712Z,9.28
2023-04-02T06:11:19.219Z,9.29
2023-04-02T06:13:03.901Z,9.28
2023-04-02T06:14:06.928Z,9.42
2023-04-02T06:15:15.792Z,9.47
2023-04-02T06:16:22.059Z,9.49
2023-04-02T06:17:25.754Z,9.49
2023-04-02T06:18:34.942Z,9.49
2023-04-02T06:19:39.842Z,9.56
2023-04-02T06:20:42.974Z,9.67
2023-04-02T06:21:50.066Z,9.67
2023-04-02T06:23:14.460Z,9.68
2023-04-02T06:24:23.345Z,9.70
2023-04-02T06:25:35.162Z,9.70
2023-04-02T06:27:03.049Z,9.73
2023-04-02T06:28:12.520Z,9.84
2023-04-02T06:29:40.107Z,9.83
2023-04-02T06:30:43.824Z,9.87
2023-04-02T06:32:00.685Z,9.89
2023-04-02T06:33:04.638Z,9.86
2023-04-02T06:34:17.042Z,9.97
2023-04-02T06:35:20.503Z,9.96
2023-04-02T06:36:26.085Z,9.95
2023-04-02T06:37:46.091Z,10.03
2023-04-02T06:38:50.418Z,10.13
2023-04-02T06:39:53.754Z,10.09
2023-04-02T06:41:12.149Z,10.07
2023-04-02T06:42:22.035Z,10.07
2023-04-02T06:43:41.384Z,10.10
2023-04-02T06:44:44.481Z,10.10
2023-04-02T06:45:52.360Z,10.08
2023-04-02T06:47:10.435Z,10.14
2023-04-02T06:48:19.684Z,10.17
2023-04-02T06:49:36.944Z,10.15
2023-04-02T06:50:57.226Z,10.19
2023-04-02T06:52:04.372Z,10.16
2023-04-02T06:53:12.223Z,10.17
2023-04-02T06:54:19.261Z,10.22
2023-04-02T06:55:28.153Z,10.28
2023-04-02T06:56:52.844Z,10.28
2023-04-02T06:57:56.401Z,10.22
2023-04-02T06:58:59.763Z,10.27
2023-04-02T07:00:04.099Z,10.23
2023-04-02T07:01:06.969Z,10.21
2023-04-02T07:02:33.325Z,10.20
2023-04-02T07:03:36.590Z,10.27
2023-04-02T07:04:39.495Z,10.35
2023-04-02T07:05:43.194Z,10.32
2023-04-02T07:06:46.916Z,10.31
2023-04-02T07:07:49.845Z,10.35
2023-04-02T07:08:53.071Z,10.42
2023-04-02T07:09:56.621Z,10.49
2023-04-02T07:10:59.615Z,10.46
2023-04-02T07:12:02.680Z,10.47
2023-04-02T07:13:06.168Z,10.47
2023-04-02T07:14:13.190Z,10.51
2023-04-02T07:15:19.718Z,10.53
2023-04-02T07:16:25.923Z,10.52
2023-04-02T07:17:29.076Z,10.52
2023-04-02T07:18:34.150Z,10.55
2023-04-02T07:19:37.364Z,10.57
2023-04-02T07:20:41.948Z,10.63
2023-04-02T07:21:44.849Z,10.61
2023-04-02T07:22:47.822Z,10.64
2023-04-02T07:23:51.076Z,10.66
2023-04-02T07:24:54.027Z,10.69
2023-04-02T07:25:57.985Z,10.68
2023-04-02T07:28:05.401Z,10.78
2023-04-02T07:29:14.194Z,10.81
2023-04-02T07:30:17.624Z,10.81
2023-04-02T07:31:24.662Z,10.81
2023-04-02T07:32:27.769Z,10.88
2023-04-02T07:33:31.691Z,10.94
2023-04-02T07:34:34.541Z,11.04
2023-04-02T07:35:37.777Z,11.07
2023-04-02T07:36:40.918Z,11.02
2023-04-02T07:37:44.006Z,11.06
2023-04-02T07:38:47.478Z,11.12
2023-04-02T07:39:50.417Z,11.09
2023-04-02T07:40:53.637Z,11.09
2023-04-02T07:41:58.759Z,11.08
2023-04-02T07:43:02.630Z,11.05
2023-04-02T07:44:05.506Z,11.12
2023-04-02T07:45:09.096Z,11.17
2023-04-02T07:46:15.268Z,11.19
2023-04-02T07:47:18.140Z,11.24
2023-04-02T07:48:20.924Z,11.35
2023-04-02T07:49:23.902Z,11.45
2023-04-02T07:50:26.729Z,11.52
2023-04-02T07:51:29.552Z,11.53
2023-04-02T07:52:33.038Z,11.57
2023-04-02T07:53:38.958Z,11.63
2023-04-02T07:54:41.876Z,11.66
2023-04-02T07:55:44.707Z,11.72
2023-04-02T07:56:47.965Z,11.73
2023-04-02T07:57:57.102Z,11.75
2023-04-02T07:59:00.213Z,11.79
2023-04-02T08:00:04.845Z,11.83
2023-04-02T08:01:16.940Z,11.87
2023-04-02T08:02:21.616Z,11.92
2023-04-02T08:03:25.239Z,11.89
2023-04-02T08:04:28.541Z,11.86
2023-04-02T08:05:31.479Z,11.88
2023-04-02T08:06:34.235Z,11.88
2023-04-02T08:07:39.337Z,11.92
2023-04-02T08:08:42.318Z,11.97
2023-04-02T08:09:45.490Z,12.06
2023-04-02T08:10:48.584Z,12.09
2023-04-02T08:11:51.715Z,12.11
2023-04-02T08:12:54.938Z,12.20
2023-04-02T08:13:57.810Z,12.28
2023-04-02T08:15:00.756Z,12.39
2023-04-02T08:16:04.969Z,12.44
2023-04-02T08:17:07.948Z,12.43
2023-04-02T08:18:11.763Z,12.47
2023-04-02T08:19:14.889Z,12.54
2023-04-02T08:20:20.604Z,12.54
2023-04-02T08:21:23.492Z,12.48
2023-04-02T08:22:27.874Z,12.45
2023-04-02T08:23:31.607Z,12.43
2023-04-02T08:24:34.621Z,12.36
2023-04-02T08:25:40.602Z,12.37
2023-04-02T08:26:45.420Z,12.41
2023-04-02T08:27:48.947Z,12.34
2023-04-02T08:28:51.897Z,12.35
2023-04-02T08:29:54.786Z,12.36
2023-04-02T08:30:57.973Z,12.36
2023-04-02T08:32:01.691Z,12.36
2023-04-02T08:33:04.821Z,12.39
2023-04-02T08:34:08.094Z,12.35
2023-04-02T08:35:17.214Z,12.39
2023-04-02T08:36:25.019Z,12.40
2023-04-02T08:37:28.336Z,12.48
2023-04-02T08:38:31.436Z,12.50
2023-04-02T08:39:35.462Z,12.50
2023-04-02T08:40:42.100Z,12.52
2023-04-02T08:41:51.539Z,12.50
2023-04-02T08:43:16.214Z,12.46
2023-04-02T08:44:38.226Z,12.47
2023-04-02T08:45:47.215Z,12.48
2023-04-02T08:47:14.024Z,12.56
2023-04-02T08:48:17.652Z,12.59
2023-04-02T08:49:28.504Z,12.65
2023-04-02T08:50:37.490Z,12.67
2023-04-02T08:51:41.236Z,12.71
2023-04-02T08:52:44.403Z,12.76
2023-04-02T08:53:47.887Z,12.80
2023-04-02T08:54:51.341Z,12.78
2023-04-02T08:56:00.204Z,12.75
2023-04-02T08:57:18.942Z,12.72
2023-04-02T08:59:03.605Z,12.68
2023-04-02T09:00:39.065Z,12.71
2023-04-02T09:02:00.874Z,12.72
2023-04-02T09:03:20.923Z,12.71
2023-04-02T09:04:26.379Z,12.71
2023-04-02T09:05:35.238Z,12.77
2023-04-02T09:06:38.542Z,12.72
2023-04-02T09:07:42.268Z,12.74
2023-04-02T09:08:47.929Z,12.73
2023-04-02T09:09:51.754Z,12.79
2023-04-02T09:11:04.005Z,12.74
2023-04-02T09:12:15.884Z,12.74
2023-04-02T09:13:23.592Z,12.73
2023-04-02T09:14:46.363Z,12.80
2023-04-02T09:15:54.043Z,12.92
2023-04-02T09:17:03.179Z,12.90
2023-04-02T09:18:19.119Z,12.92
2023-04-02T09:19:25.674Z,12.87
2023-04-02T09:20:29.567Z,12.86
2023-04-02T09:21:34.819Z,12.90
2023-04-02T09:22:41.678Z,13.02
2023-04-02T09:23:44.768Z,13.18
2023-04-02T09:24:59.277Z,13.30
2023-04-02T09:26:04.664Z,13.33
2023-04-02T09:27:33.194Z,13.35
2023-04-02T09:28:36.537Z,13.46
2023-04-02T09:29:45.555Z,13.50
2023-04-02T09:31:15.325Z,13.53
2023-04-02T09:32:18.095Z,13.45
2023-04-02T09:33:40.604Z,13.47
2023-04-02T09:34:43.530Z,13.46
2023-04-02T09:35:51.845Z,13.55
2023-04-02T09:36:55.032Z,13.51
2023-04-02T09:38:10.252Z,13.44
2023-04-02T09:39:23.952Z,13.46
2023-04-02T09:40:32.233Z,13.51
2023-04-02T09:41:37.210Z,13.54
2023-04-02T09:42:41.182Z,13.53
2023-04-02T09:43:44.301Z,13.45
2023-04-02T09:44:47.162Z,13.46
2023-04-02T09:46:04.374Z,13.51
2023-04-02T09:47:25.451Z,13.46
2023-04-02T09:48:32.675Z,13.48
2023-04-02T09:49:40.131Z,13.42
2023-04-02T09:50:43.124Z,13.41
2023-04-02T09:51:46.239Z,13.38
2023-04-02T09:52:51.588Z,13.38
2023-04-02T09:54:03.824Z,13.38
2023-04-02T09:55:16.210Z,13.39
2023-04-02T09:56:24.453Z,13.44
2023-04-02T09:57:28.434Z,13.41
2023-04-02T09:58:31.511Z,13.30
2023-04-02T09:59:34.558Z,13.24
2023-04-02T10:00:37.482Z,13.20
2023-04-02T10:01:44.382Z,13.19
2023-04-02T10:03:00.738Z,13.25
2023-04-02T10:04:05.711Z,13.22
2023-04-02T10:05:36.915Z,13.18
2023-04-02T10:06:50.711Z,13.21
2023-04-02T10:08:06.068Z,13.22
2023-04-02T10:09:45.886Z,13.20
2023-04-02T10:10:53.392Z,13.09
2023-04-02T10:11:58.725Z,13.02
2023-04-02T10:13:08.240Z,12.95
2023-04-02T10:14:36.385Z,12.95
2023-04-02T10:15:58.902Z,12.97
2023-04-02T10:17:19.156Z,13.05
2023-04-02T10:18:40.029Z,12.92
2023-04-02T10:19:47.887Z,12.90
2023-04-02T10:20:53.316Z,12.86
2023-04-02T10:21:58.622Z,12.88
2023-04-02T10:23:01.632Z,12.84
2023-04-02T10:24:15.762Z,12.88
2023-04-02T10:25:21.874Z,12.86
2023-04-02T10:26:47.001Z,12.91
2023-04-02T10:27:55.931Z,13.01
2023-04-02T10:29:07.388Z,13.08
2023-04-02T10:30:16.560Z,13.06
2023-04-02T10:31:48.814Z,13.10
2023-04-02T10:32:59.989Z,13.04
2023-04-02T10:34:11.665Z,13.05
2023-04-02T10:35:36.877Z,13.06
2023-04-02T10:36:51.172Z,13.08
2023-04-02T10:37:54.617Z,13.10
2023-04-02T10:39:27.595Z,13.12
2023-04-02T10:40:51.285Z,13.16
2023-04-02T10:42:04.323Z,13.20
2023-04-02T10:43:38.003Z,13.22
2023-04-02T10:45:00.119Z,13.25
2023-04-02T10:46:32.950Z,13.38
2023-04-02T10:47:48.761Z,13.45
2023-04-02T10:49:02.470Z,13.60
2023-04-02T10:50:42.562Z,13.70
2023-04-02T10:51:50.643Z,13.86
2023-04-02T10:53:04.886Z,14.10
2023-04-02T10:54:43.214Z,14.22
2023-04-02T10:55:55.335Z,14.26
2023-04-02T10:57:23.737Z,14.30
2023-04-02T10:58:32.009Z,14.38
2023-04-02T10:59:41.326Z,14.42
2023-04-02T11:00:47.218Z,14.44
2023-04-02T11:01:53.929Z,14.51
2023-04-02T11:03:07.593Z,14.65
2023-04-02T11:04:22.226Z,14.75
2023-04-02T11:05:47.029Z,14.86
2023-04-02T11:07:13.188Z,14.88
2023-04-02T11:08:40.812Z,14.80
2023-04-02T11:09:49.004Z,14.92
2023-04-02T11:10:57.959Z,15.14
2023-04-02T11:12:03.545Z,15.22
2023-04-02T11:13:14.667Z,15.39
2023-04-02T11:14:29.028Z,15.57
2023-04-02T11:15:32.639Z,15.73
2023-04-02T11:16:38.747Z,15.92
2023-04-02T11:17:45.801Z,15.95
2023-04-02T11:19:16.359Z,16.03
2023-04-02T11:20:50.094Z,16.17
2023-04-02T11:22:04.355Z,16.13
2023-04-02T11:23:14.201Z,16.19
2023-04-02T11:24:34.368Z,16.27
2023-04-02T11:25:37.625Z,16.39
2023-04-02T11:26:44.015Z,16.49
2023-04-02T11:27:47.129Z,16.44
2023-04-02T11:28:50.223Z,16.53
2023-04-02T11:29:58.097Z,16.59
2023-04-02T11:31:02.380Z,16.62
2023-04-02T11:32:15.975Z,16.45
2023-04-02T11:33:38.303Z,16.26
2023-04-02T11:35:03.082Z,16.19
2023-04-02T11:36:46.879Z,16.08
2023-04-02T11:37:50.077Z,16.11
2023-04-02T11:38:54.983Z,16.09
2023-04-02T11:40:25.403Z,16.04
2023-04-02T11:41:56.056Z,16.03
2023-04-02T11:43:34.480Z,16.05
2023-04-02T11:44:37.417Z,16.13
2023-04-02T11:45:52.587Z,16.20
2023-04-02T11:47:23.863Z,16.24
2023-04-02T11:48:30.166Z,16.27
2023-04-02T11:49:36.304Z,16.44
2023-04-02T11:50:46.644Z,16.39
2023-04-02T11:51:56.541Z,16.42
2023-04-02T11:53:11.763Z,16.36
2023-04-02T11:54:28.838Z,16.21
2023-04-02T11:55:36.263Z,16.14
2023-04-02T11:56:52.789Z,16.03
2023-04-02T11:58:02.141Z,15.98
2023-04-02T11:59:30.000Z,15.99
2023-04-02T12:00:33.411Z,16.12
2023-04-02T12:01:45.488Z,16.07
2023-04-02T12:03:13.701Z,16.14
2023-04-02T12:04:22.743Z,16.26
2023-04-02T12:05:54.929Z,16.22
2023-04-02T12:07:17.779Z,16.21
2023-04-02T12:08:57.664Z,16.22
2023-04-02T12:10:06.366Z,16.22
2023-04-02T12:11:09.520Z,16.33
2023-04-02T12:12:24.811Z,16.39
2023-04-02T12:13:39.863Z,16.42
2023-04-02T12:14:49.726Z,16.35
2023-04-02T12:15:53.096Z,16.36
2023-04-02T12:16:56.808Z,16.42
2023-04-02T12:18:15.126Z,16.45
2023-04-02T12:19:18.457Z,16.43
2023-04-02T12:20:31.989Z,16.39
2023-04-02T12:21:35.323Z,16.50
2023-04-02T12:22:52.295Z,16.59
2023-04-02T12:23:58.954Z,16.75
2023-04-02T12:25:06.846Z,16.70
2023-04-02T12:26:37.878Z,16.74
2023-04-02T12:27:44.308Z,16.78
2023-04-02T12:28:48.009Z,16.72
2023-04-02T12:29:52.754Z,16.76
2023-04-02T12:31:19.578Z,16.71
2023-04-02T12:32:27.819Z,16.68
2023-04-02T12:33:37.702Z,16.59
2023-04-02T12:34:46.782Z,16.56
2023-04-02T12:35:55.428Z,16.54
2023-04-02T12:37:04.443Z,16.60
2023-04-02T12:38:26.185Z,16.53
2023-04-02T12:39:31.126Z,16.44
2023-04-02T12:40:34.437Z,16.45
2023-04-02T12:41:38.061Z,16.52
2023-04-02T12:42:41.340Z,16.52
2023-04-02T12:43:44.694Z,16.47
2023-04-02T12:44:50.810Z,16.29
2023-04-02T12:46:01.465Z,16.14
2023-04-02T12:47:05.260Z,16.06
2023-04-02T12:48:12.327Z,15.92
2023-04-02T12:49:37.327Z,15.74
2023-04-02T12:50:42.109Z,15.63
2023-04-02T12:51:45.115Z,15.63
2023-04-02T12:52:51.582Z,15.59
2023-04-02T12:53:54.541Z,15.68
2023-04-02T12:55:03.714Z,15.73
2023-04-02T12:56:09.062Z,15.79
2023-04-02T12:57:30.663Z,15.84
2023-04-02T12:58:58.273Z,15.87
2023-04-02T13:00:06.711Z,15.98
2023-04-02T13:01:14.788Z,16.02
2023-04-02T13:02:21.453Z,16.04
2023-04-02T13:03:25.547Z,16.12
2023-04-02T13:04:29.671Z,16.22
2023-04-02T13:05:41.786Z,16.24
2023-04-02T13:06:57.717Z,16.33
2023-04-02T13:08:01.120Z,16.47
2023-04-02T13:09:07.666Z,16.43
2023-04-02T13:10:27.863Z,16.47
2023-04-02T13:11:39.661Z,16.43
2023-04-02T13:12:42.673Z,16.52
2023-04-02T13:13:47.384Z,16.64
2023-04-02T13:14:58.088Z,16.69
2023-04-02T13:16:08.576Z,16.74
2023-04-02T13:17:41.090Z,16.80
2023-04-02T13:18:47.712Z,16.62
2023-04-02T13:19:51.348Z,16.46
2023-04-02T13:21:01.377Z,16.40
2023-04-02T13:22:32.202Z,16.25
2023-04-02T13:23:38.182Z,16.22
2023-04-02T13:24:41.654Z,16.10
2023-04-02T13:25:44.988Z,16.05
2023-04-02T13:26:49.938Z,15.96
2023-04-02T13:27:54.148Z,16.04
2023-04-02T13:28:58.539Z,16.02
2023-04-02T13:30:09.173Z,16.06
2023-04-02T13:31:17.206Z,16.07
2023-04-02T13:32:20.209Z,16.03
2023-04-02T13:33:23.354Z,16.06
2023-04-02T13:34:26.787Z,15.98
2023-04-02T13:35:29.968Z,15.96
2023-04-02T13:36:33.062Z,15.96
2023-04-02T13:37:36.318Z,15.80
2023-04-02T13:38:39.479Z,15.76
2023-04-02T13:39:43.024Z,15.50
2023-04-02T13:40:47.073Z,15.44
2023-04-02T13:42:03.294Z,15.28
2023-04-02T13:43:07.659Z,15.16
2023-04-02T13:44:32.410Z,15.05
2023-04-02T13:45:38.375Z,15.03
2023-04-02T13:46:41.549Z,15.00
2023-04-02T13:47:45.274Z,15.06
2023-04-02T13:48:51.079Z,15.15
2023-04-02T13:49:55.772Z,15.31
2023-04-02T13:50:59.035Z,15.41
2023-04-02T13:52:05.279Z,15.39
2023-04-02T13:53:14.019Z,15.32
2023-04-02T13:54:24.265Z,15.29
2023-04-02T13:55:33.766Z,15.34
2023-04-02T13:56:37.835Z,15.25
2023-04-02T13:57:41.013Z,15.13
2023-04-02T13:58:44.443Z,15.06
2023-04-02T13:59:47.958Z,14.96
2023-04-02T14:00:51.996Z,14.84
2023-04-02T14:02:03.325Z,14.66
2023-04-02T14:03:11.430Z,14.61
2023-04-02T14:04:23.336Z,14.43
2023-04-02T14:05:51.402Z,14.29
2023-04-02T14:07:15.400Z,14.19
2023-04-02T14:08:41.608Z,14.13
2023-04-02T14:09:48.197Z,14.06
2023-04-02T14:11:00.315Z,13.97
2023-04-02T14:12:35.572Z,14.00
2023-04-02T14:13:44.688Z,13.96
2023-04-02T14:15:13.284Z,14.12
2023-04-02T14:16:34.674Z,14.23
2023-04-02T14:17:58.664Z,14.36
2023-04-02T14:19:26.921Z,14.46
2023-04-02T14:20:49.776Z,14.48
2023-04-02T14:22:17.415Z,14.47
2023-04-02T14:23:27.501Z,14.50
2023-04-02T14:24:44.675Z,14.58
2023-04-02T14:26:32.740Z,14.54
2023-04-02T14:27:47.343Z,14.41
2023-04-02T14:29:00.397Z,14.37
2023-04-02T14:30:08.976Z,14.32
2023-04-02T14:31:38.721Z,14.25
2023-04-02T14:32:55.822Z,14.15
2023-04-02T14:34:14.350Z,14.02
2023-04-02T14:35:29.676Z,13.91
2023-04-02T14:36:48.183Z,13.87
2023-04-02T14:38:17.984Z,13.80
2023-04-02T14:39:58.996Z,13.70
2023-04-02T14:41:38.124Z,13.70
2023-04-02T14:43:02.240Z,13.68
2023-04-02T14:44:08.020Z,13.52
2023-04-02T14:45:45.115Z,13.55
2023-04-02T14:46:48.632Z,13.60
2023-04-02T14:48:03.443Z,13.53
2023-04-02T14:49:09.418Z,13.54
2023-04-02T14:50:42.267Z,13.67
2023-04-02T14:51:55.490Z,13.63
2023-04-02T14:53:04.681Z,13.59
2023-04-02T14:54:12.815Z,13.57
2023-04-02T14:55:24.298Z,13.53
2023-04-02T14:56:29.778Z,13.51
2023-04-02T14:57:49.228Z,13.48
2023-04-02T14:59:06.851Z,13.53
2023-04-02T15:00:33.283Z,13.55
2023-04-02T15:01:42.122Z,13.68
2023-04-02T15:03:25.848Z,13.55
2023-04-02T15:04:37.865Z,13.54
2023-04-02T15:05:48.263Z,13.43
2023-04-02T15:06:56.271Z,13.28
2023-04-02T15:08:08.497Z,13.09
2023-04-02T15:09:20.612Z,12.92
2023-04-02T15:10:37.346Z,12.66
2023-04-02T15:12:04.198Z,12.44
2023-04-02T15:13:20.554Z,12.23
2023-04-02T15:14:34.355Z,11.96
2023-04-02T15:16:11.351Z,11.72
2023-04-02T15:17:15.076Z,11.47
2023-04-02T15:18:18.971Z,11.34
2023-04-02T15:19:22.224Z,11.28
2023-04-02T15:20:26.889Z,11.24
2023-04-02T15:21:57.186Z,11.08
2023-04-02T15:23:31.699Z,10.90
2023-04-02T15:24:56.954Z,10.62
2023-04-02T15:26:29.157Z,10.62
2023-04-02T15:27:33.208Z,10.44
2023-04-02T15:28:48.165Z,10.41
2023-04-02T15:30:15.665Z,10.35
2023-04-02T15:31:24.095Z,10.21
2023-04-02T15:32:34.233Z,10.17
2023-04-02T15:33:52.146Z,10.18
2023-04-02T15:35:23.664Z,10.15
2023-04-02T15:36:37.042Z,10.19
2023-04-02T15:38:02.101Z,10.22
2023-04-02T15:39:25.030Z,10.24
2023-04-02T15:40:42.296Z,10.35
2023-04-02T15:42:01.990Z,10.34
2023-04-02T15:43:40.840Z,10.29
2023-04-02T15:45:18.186Z,10.31